sensor_id;sensor_type;location;lat;lon;timestamp;P1;P2;P0
55686;PMS5003;41911;52.362;4.978;2023-06-22T00:00:11;22.0;21.0;
55686;PMS5003;41911;52.362;4.978;2023-06-22T00:00:42;26.0;25.0;
55686;PMS5003;41911;52.362;4.978;2023-06-22T00:01:13;27.0;27.0;
55686;PMS5003;41911;52.362;4.978;2023-06-22T00:01:44;27.0;27.0;
55686;PMS5003;41911;52.362;4.978;2023-06-22T00:02:15;27.0;26.0;
55686;PMS5003;41911;52.362;4.978;2023-06-22T00:02:46;23.0;21.0;
55686;PMS5003;41911;52.362;4.978;2023-06-22T00:03:17;21.0;21.0;
55686;PMS5003;41911;52.362;4.978;2023-06-22T00:03:49;23.0;23.0;
55686;PMS5003;41911;52.362;4.978;2023-06-22T00:04:20;26.0;25.0;
55686;PMS5003;41911;52.362;4.978;2023-06-22T00:04:51;23.0;22.0;
55686;PMS5003;41911;52.362;4.978;2023-06-22T00:05:21;27.0;26.0;
55686;PMS5003;41911;52.362;4.978;2023-06-22T00:05:53;28.0;27.0;
55686;PMS5003;41911;52.362;4.978;2023-06-22T00:06:24;24.0;24.0;
55686;PMS5003;41911;52.362;4.978;2023-06-22T00:06:54;28.0;26.0;
55686;PMS5003;41911;52.362;4.978;2023-06-22T00:07:25;28.0;26.0;
55686;PMS5003;41911;52.362;4.978;2023-06-22T00:07:56;27.0;25.0;
55686;PMS5003;41911;52.362;4.978;2023-06-22T00:08:28;24.0;23.0;
55686;PMS5003;41911;52.362;4.978;2023-06-22T00:08:58;26.0;26.0;
55686;PMS5003;41911;52.362;4.978;2023-06-22T00:09:30;29.0;28.0;
55686;PMS5003;41911;52.362;4.978;2023-06-22T00:10:01;32.0;31.0;
55686;PMS5003;41911;52.362;4.978;2023-06-22T00:10:33;26.0;25.0;
55686;PMS5003;41911;52.362;4.978;2023-06-22T00:11:04;31.0;28.0;
55686;PMS5003;41911;52.362;4.978;2023-06-22T00:11:35;29.0;29.0;
55686;PMS5003;41911;52.362;4.978;2023-06-22T00:12:06;28.0;27.0;
55686;PMS5003;41911;52.362;4.978;2023-06-22T00:12:38;28.0;27.0;
55686;PMS5003;41911;52.362;4.978;2023-06-22T00:13:09;31.0;30.0;
55686;PMS5003;41911;52.362;4.978;2023-06-22T00:13:40;29.0;28.0;
55686;PMS5003;41911;52.362;4.978;2023-06-22T00:14:12;29.0;28.0;
55686;PMS5003;41911;52.362;4.978;2023-06-22T00:14:43;33.0;31.0;
55686;PMS5003;41911;52.362;4.978;2023-06-22T00:15:14;27.0;27.0;
55686;PMS5003;41911;52.362;4.978;2023-06-22T00:15:45;29.0;27.0;
55686;PMS5003;41911;52.362;4.978;2023-06-22T00:16:16;28.0;27.0;
55686;PMS5003;41911;52.362;4.978;2023-06-22T00:16:47;27.0;26.0;
55686;PMS5003;41911;52.362;4.978;2023-06-22T00:17:18;30.0;29.0;
55686;PMS5003;41911;52.362;4.978;2023-06-22T00:17:49;29.0;28.0;
55686;PMS5003;41911;52.362;4.978;2023-06-22T00:18:21;28.0;28.0;
55686;PMS5003;41911;52.362;4.978;2023-06-22T00:18:52;29.0;28.0;
55686;PMS5003;41911;52.362;4.978;2023-06-22T00:19:23;32.0;28.0;
55686;PMS5003;41911;52.362;4.978;2023-06-22T00:19:54;30.0;27.0;
55686;PMS5003;41911;52.362;4.978;2023-06-22T00:20:25;26.0;24.0;
55686;PMS5003;41911;52.362;4.978;2023-06-22T00:20:56;26.0;25.0;
55686;PMS5003;41911;52.362;4.978;2023-06-22T00:21:27;28.0;28.0;
55686;PMS5003;41911;52.362;4.978;2023-06-22T00:21:59;28.0;27.0;
55686;PMS5003;41911;52.362;4.978;2023-06-22T00:22:30;28.0;27.0;
55686;PMS5003;41911;52.362;4.978;2023-06-22T00:23:00;34.0;33.0;
55686;PMS5003;41911;52.362;4.978;2023-06-22T00:23:32;32.0;27.0;
55686;PMS5003;41911;52.362;4.978;2023-06-22T00:24:03;24.0;23.0;
55686;PMS5003;41911;52.362;4.978;2023-06-22T00:24:35;25.0;23.0;
55686;PMS5003;41911;52.362;4.978;2023-06-22T00:25:06;27.0;27.0;
55686;PMS5003;41911;52.362;4.978;2023-06-22T00:25:38;30.0;28.0;
55686;PMS5003;41911;52.362;4.978;2023-06-22T00:26:09;28.0;27.0;
55686;PMS5003;41911;52.362;4.978;2023-06-22T00:26:40;28.0;27.0;
55686;PMS5003;41911;52.362;4.978;2023-06-22T00:27:11;28.0;27.0;
55686;PMS5003;41911;52.362;4.978;2023-06-22T00:27:42;28.0;26.0;
55686;PMS5003;41911;52.362;4.978;2023-06-22T00:28:13;28.0;26.0;
55686;PMS5003;41911;52.362;4.978;2023-06-22T00:28:44;27.0;26.0;
55686;PMS5003;41911;52.362;4.978;2023-06-22T00:29:15;26.0;25.0;
55686;PMS5003;41911;52.362;4.978;2023-06-22T00:29:46;30.0;28.0;
55686;PMS5003;41911;52.362;4.978;2023-06-22T00:30:17;28.0;27.0;
55686;PMS5003;41911;52.362;4.978;2023-06-22T00:30:49;34.0;32.0;
55686;PMS5003;41911;52.362;4.978;2023-06-22T00:31:20;35.0;33.0;
55686;PMS5003;41911;52.362;4.978;2023-06-22T00:31:50;31.0;30.0;
55686;PMS5003;41911;52.362;4.978;2023-06-22T00:32:21;30.0;30.0;
55686;PMS5003;41911;52.362;4.978;2023-06-22T00:32:52;28.0;26.0;
55686;PMS5003;41911;52.362;4.978;2023-06-22T00:33:23;33.0;31.0;
55686;PMS5003;41911;52.362;4.978;2023-06-22T00:33:54;34.0;33.0;
55686;PMS5003;41911;52.362;4.978;2023-06-22T00:34:25;36.0;33.0;
55686;PMS5003;41911;52.362;4.978;2023-06-22T00:34:56;42.0;38.0;
55686;PMS5003;41911;52.362;4.978;2023-06-22T00:35:27;30.0;29.0;
55686;PMS5003;41911;52.362;4.978;2023-06-22T00:35:58;35.0;34.0;
55686;PMS5003;41911;52.362;4.978;2023-06-22T00:36:29;34.0;34.0;
55686;PMS5003;41911;52.362;4.978;2023-06-22T00:37:00;29.0;28.0;
55686;PMS5003;41911;52.362;4.978;2023-06-22T00:37:31;34.0;33.0;
55686;PMS5003;41911;52.362;4.978;2023-06-22T00:38:02;31.0;30.0;
55686;PMS5003;41911;52.362;4.978;2023-06-22T00:38:33;30.0;29.0;
55686;PMS5003;41911;52.362;4.978;2023-06-22T00:39:04;37.0;35.0;
55686;PMS5003;41911;52.362;4.978;2023-06-22T00:39:35;35.0;33.0;
55686;PMS5003;41911;52.362;4.978;2023-06-22T00:40:06;31.0;29.0;
55686;PMS5003;41911;52.362;4.978;2023-06-22T00:40:38;33.0;29.0;
55686;PMS5003;41911;52.362;4.978;2023-06-22T00:41:09;32.0;31.0;
55686;PMS5003;41911;52.362;4.978;2023-06-22T00:41:40;31.0;30.0;
55686;PMS5003;41911;52.362;4.978;2023-06-22T00:42:11;31.0;30.0;
55686;PMS5003;41911;52.362;4.978;2023-06-22T00:42:42;34.0;32.0;
55686;PMS5003;41911;52.362;4.978;2023-06-22T00:43:13;32.0;32.0;
55686;PMS5003;41911;52.362;4.978;2023-06-22T00:43:44;32.0;30.0;
55686;PMS5003;41911;52.362;4.978;2023-06-22T00:44:15;34.0;32.0;
55686;PMS5003;41911;52.362;4.978;2023-06-22T00:44:47;32.0;31.0;
55686;PMS5003;41911;52.362;4.978;2023-06-22T00:45:18;29.0;28.0;
55686;PMS5003;41911;52.362;4.978;2023-06-22T00:45:49;30.0;29.0;
55686;PMS5003;41911;52.362;4.978;2023-06-22T00:46:20;37.0;34.0;
55686;PMS5003;41911;52.362;4.978;2023-06-22T00:46:54;35.0;32.0;
55686;PMS5003;41911;52.362;4.978;2023-06-22T00:47:25;31.0;31.0;
55686;PMS5003;41911;52.362;4.978;2023-06-22T00:47:57;34.0;33.0;
55686;PMS5003;41911;52.362;4.978;2023-06-22T00:48:29;32.0;32.0;
55686;PMS5003;41911;52.362;4.978;2023-06-22T00:49:00;32.0;31.0;
55686;PMS5003;41911;52.362;4.978;2023-06-22T00:49:31;32.0;32.0;
55686;PMS5003;41911;52.362;4.978;2023-06-22T00:50:02;34.0;32.0;
55686;PMS5003;41911;52.362;4.978;2023-06-22T00:50:37;32.0;30.0;
55686;PMS5003;41911;52.362;4.978;2023-06-22T00:51:09;35.0;33.0;
55686;PMS5003;41911;52.362;4.978;2023-06-22T00:51:41;34.0;34.0;
55686;PMS5003;41911;52.362;4.978;2023-06-22T00:52:12;36.0;36.0;
55686;PMS5003;41911;52.362;4.978;2023-06-22T00:52:43;37.0;34.0;
55686;PMS5003;41911;52.362;4.978;2023-06-22T00:53:15;36.0;35.0;
55686;PMS5003;41911;52.362;4.978;2023-06-22T00:53:46;31.0;30.0;
55686;PMS5003;41911;52.362;4.978;2023-06-22T00:54:17;37.0;36.0;
55686;PMS5003;41911;52.362;4.978;2023-06-22T00:54:48;40.0;38.0;
55686;PMS5003;41911;52.362;4.978;2023-06-22T00:55:19;31.0;30.0;
55686;PMS5003;41911;52.362;4.978;2023-06-22T00:55:52;36.0;34.0;
55686;PMS5003;41911;52.362;4.978;2023-06-22T00:56:23;37.0;36.0;
55686;PMS5003;41911;52.362;4.978;2023-06-22T00:56:54;34.0;29.0;
55686;PMS5003;41911;52.362;4.978;2023-06-22T00:57:25;39.0;36.0;
55686;PMS5003;41911;52.362;4.978;2023-06-22T00:57:56;31.0;29.0;
55686;PMS5003;41911;52.362;4.978;2023-06-22T00:58:27;35.0;33.0;
55686;PMS5003;41911;52.362;4.978;2023-06-22T00:58:58;37.0;34.0;
55686;PMS5003;41911;52.362;4.978;2023-06-22T00:59:31;33.0;30.0;
55686;PMS5003;41911;52.362;4.978;2023-06-22T01:00:02;31.0;31.0;
55686;PMS5003;41911;52.362;4.978;2023-06-22T01:00:34;34.0;32.0;
55686;PMS5003;41911;52.362;4.978;2023-06-22T01:01:05;30.0;30.0;
55686;PMS5003;41911;52.362;4.978;2023-06-22T01:01:36;37.0;36.0;
55686;PMS5003;41911;52.362;4.978;2023-06-22T01:02:07;34.0;33.0;
55686;PMS5003;41911;52.362;4.978;2023-06-22T01:02:37;35.0;35.0;
55686;PMS5003;41911;52.362;4.978;2023-06-22T01:03:09;31.0;29.0;
55686;PMS5003;41911;52.362;4.978;2023-06-22T01:03:40;31.0;29.0;
55686;PMS5003;41911;52.362;4.978;2023-06-22T01:04:11;35.0;31.0;
55686;PMS5003;41911;52.362;4.978;2023-06-22T01:04:42;32.0;30.0;
55686;PMS5003;41911;52.362;4.978;2023-06-22T01:05:13;29.0;28.0;
55686;PMS5003;41911;52.362;4.978;2023-06-22T01:05:44;33.0;31.0;
55686;PMS5003;41911;52.362;4.978;2023-06-22T01:06:20;35.0;34.0;
55686;PMS5003;41911;52.362;4.978;2023-06-22T01:06:58;33.0;31.0;
55686;PMS5003;41911;52.362;4.978;2023-06-22T01:07:39;34.0;31.0;
55686;PMS5003;41911;52.362;4.978;2023-06-22T01:08:22;28.0;27.0;
55686;PMS5003;41911;52.362;4.978;2023-06-22T01:09:01;32.0;30.0;
55686;PMS5003;41911;52.362;4.978;2023-06-22T01:09:40;30.0;29.0;
55686;PMS5003;41911;52.362;4.978;2023-06-22T01:10:21;29.0;28.0;
55686;PMS5003;41911;52.362;4.978;2023-06-22T01:11:00;32.0;32.0;
55686;PMS5003;41911;52.362;4.978;2023-06-22T01:11:37;31.0;31.0;
55686;PMS5003;41911;52.362;4.978;2023-06-22T01:12:12;30.0;28.0;
55686;PMS5003;41911;52.362;4.978;2023-06-22T01:12:50;32.0;32.0;
55686;PMS5003;41911;52.362;4.978;2023-06-22T01:13:27;35.0;33.0;
55686;PMS5003;41911;52.362;4.978;2023-06-22T01:14:06;36.0;34.0;
55686;PMS5003;41911;52.362;4.978;2023-06-22T01:14:43;37.0;35.0;
55686;PMS5003;41911;52.362;4.978;2023-06-22T01:15:21;38.0;36.0;
55686;PMS5003;41911;52.362;4.978;2023-06-22T01:16:00;40.0;37.0;
55686;PMS5003;41911;52.362;4.978;2023-06-22T01:16:34;31.0;30.0;
55686;PMS5003;41911;52.362;4.978;2023-06-22T01:17:08;35.0;33.0;
55686;PMS5003;41911;52.362;4.978;2023-06-22T01:17:43;37.0;36.0;
55686;PMS5003;41911;52.362;4.978;2023-06-22T01:18:16;36.0;35.0;
55686;PMS5003;41911;52.362;4.978;2023-06-22T01:18:49;39.0;35.0;
55686;PMS5003;41911;52.362;4.978;2023-06-22T01:19:29;35.0;34.0;
55686;PMS5003;41911;52.362;4.978;2023-06-22T01:20:08;34.0;33.0;
55686;PMS5003;41911;52.362;4.978;2023-06-22T01:20:40;39.0;38.0;
55686;PMS5003;41911;52.362;4.978;2023-06-22T01:21:12;40.0;38.0;
55686;PMS5003;41911;52.362;4.978;2023-06-22T01:21:46;36.0;34.0;
55686;PMS5003;41911;52.362;4.978;2023-06-22T01:22:19;35.0;33.0;
55686;PMS5003;41911;52.362;4.978;2023-06-22T01:22:59;40.0;35.0;
55686;PMS5003;41911;52.362;4.978;2023-06-22T01:23:42;36.0;32.0;
55686;PMS5003;41911;52.362;4.978;2023-06-22T01:24:26;36.0;35.0;
55686;PMS5003;41911;52.362;4.978;2023-06-22T01:25:06;39.0;37.0;
55686;PMS5003;41911;52.362;4.978;2023-06-22T01:25:45;38.0;36.0;
55686;PMS5003;41911;52.362;4.978;2023-06-22T01:26:20;33.0;32.0;
55686;PMS5003;41911;52.362;4.978;2023-06-22T01:27:00;42.0;40.0;
55686;PMS5003;41911;52.362;4.978;2023-06-22T01:27:48;40.0;35.0;
55686;PMS5003;41911;52.362;4.978;2023-06-22T01:28:35;39.0;31.0;
55686;PMS5003;41911;52.362;4.978;2023-06-22T01:29:12;39.0;37.0;
55686;PMS5003;41911;52.362;4.978;2023-06-22T01:29:44;36.0;34.0;
55686;PMS5003;41911;52.362;4.978;2023-06-22T01:30:16;35.0;33.0;
55686;PMS5003;41911;52.362;4.978;2023-06-22T01:30:49;39.0;34.0;
55686;PMS5003;41911;52.362;4.978;2023-06-22T01:31:23;40.0;38.0;
55686;PMS5003;41911;52.362;4.978;2023-06-22T01:31:56;38.0;36.0;
55686;PMS5003;41911;52.362;4.978;2023-06-22T01:32:30;38.0;38.0;
55686;PMS5003;41911;52.362;4.978;2023-06-22T01:33:02;35.0;34.0;
55686;PMS5003;41911;52.362;4.978;2023-06-22T01:33:36;38.0;35.0;
55686;PMS5003;41911;52.362;4.978;2023-06-22T01:34:11;33.0;32.0;
55686;PMS5003;41911;52.362;4.978;2023-06-22T01:34:43;39.0;37.0;
55686;PMS5003;41911;52.362;4.978;2023-06-22T01:35:16;39.0;37.0;
55686;PMS5003;41911;52.362;4.978;2023-06-22T01:35:49;36.0;35.0;
55686;PMS5003;41911;52.362;4.978;2023-06-22T01:36:21;39.0;37.0;
55686;PMS5003;41911;52.362;4.978;2023-06-22T01:36:54;39.0;32.0;
55686;PMS5003;41911;52.362;4.978;2023-06-22T01:37:25;32.0;30.0;
55686;PMS5003;41911;52.362;4.978;2023-06-22T01:37:57;34.0;34.0;
55686;PMS5003;41911;52.362;4.978;2023-06-22T01:38:29;31.0;29.0;
55686;PMS5003;41911;52.362;4.978;2023-06-22T01:39:02;37.0;36.0;
55686;PMS5003;41911;52.362;4.978;2023-06-22T01:39:36;34.0;33.0;
55686;PMS5003;41911;52.362;4.978;2023-06-22T01:40:07;36.0;33.0;
55686;PMS5003;41911;52.362;4.978;2023-06-22T01:40:39;32.0;32.0;
55686;PMS5003;41911;52.362;4.978;2023-06-22T01:41:11;41.0;37.0;
55686;PMS5003;41911;52.362;4.978;2023-06-22T01:41:42;33.0;30.0;
55686;PMS5003;41911;52.362;4.978;2023-06-22T01:42:14;31.0;30.0;
55686;PMS5003;41911;52.362;4.978;2023-06-22T01:42:45;35.0;33.0;
55686;PMS5003;41911;52.362;4.978;2023-06-22T01:43:17;34.0;33.0;
55686;PMS5003;41911;52.362;4.978;2023-06-22T01:43:49;34.0;33.0;
55686;PMS5003;41911;52.362;4.978;2023-06-22T01:44:21;32.0;30.0;
55686;PMS5003;41911;52.362;4.978;2023-06-22T01:44:54;31.0;30.0;
55686;PMS5003;41911;52.362;4.978;2023-06-22T01:45:26;34.0;33.0;
55686;PMS5003;41911;52.362;4.978;2023-06-22T01:45:58;31.0;31.0;
55686;PMS5003;41911;52.362;4.978;2023-06-22T01:46:31;36.0;34.0;
55686;PMS5003;41911;52.362;4.978;2023-06-22T01:47:03;29.0;29.0;
55686;PMS5003;41911;52.362;4.978;2023-06-22T01:47:35;41.0;37.0;
55686;PMS5003;41911;52.362;4.978;2023-06-22T01:48:06;31.0;29.0;
55686;PMS5003;41911;52.362;4.978;2023-06-22T01:48:38;31.0;30.0;
55686;PMS5003;41911;52.362;4.978;2023-06-22T01:49:09;34.0;31.0;
55686;PMS5003;41911;52.362;4.978;2023-06-22T01:49:41;32.0;31.0;
55686;PMS5003;41911;52.362;4.978;2023-06-22T01:50:12;30.0;30.0;
55686;PMS5003;41911;52.362;4.978;2023-06-22T01:50:43;28.0;27.0;
55686;PMS5003;41911;52.362;4.978;2023-06-22T01:51:14;34.0;33.0;
55686;PMS5003;41911;52.362;4.978;2023-06-22T01:51:46;35.0;32.0;
55686;PMS5003;41911;52.362;4.978;2023-06-22T01:52:17;33.0;32.0;
55686;PMS5003;41911;52.362;4.978;2023-06-22T01:52:49;31.0;29.0;
55686;PMS5003;41911;52.362;4.978;2023-06-22T01:53:20;30.0;29.0;
55686;PMS5003;41911;52.362;4.978;2023-06-22T01:53:51;31.0;31.0;
55686;PMS5003;41911;52.362;4.978;2023-06-22T01:54:22;26.0;26.0;
55686;PMS5003;41911;52.362;4.978;2023-06-22T01:54:53;31.0;30.0;
55686;PMS5003;41911;52.362;4.978;2023-06-22T01:55:24;34.0;31.0;
55686;PMS5003;41911;52.362;4.978;2023-06-22T01:55:55;28.0;27.0;
55686;PMS5003;41911;52.362;4.978;2023-06-22T01:56:27;26.0;26.0;
55686;PMS5003;41911;52.362;4.978;2023-06-22T01:56:58;34.0;33.0;
55686;PMS5003;41911;52.362;4.978;2023-06-22T01:57:29;25.0;25.0;
55686;PMS5003;41911;52.362;4.978;2023-06-22T01:58:00;31.0;29.0;
55686;PMS5003;41911;52.362;4.978;2023-06-22T01:58:31;28.0;27.0;
55686;PMS5003;41911;52.362;4.978;2023-06-22T01:59:05;25.0;25.0;
55686;PMS5003;41911;52.362;4.978;2023-06-22T01:59:45;31.0;29.0;
55686;PMS5003;41911;52.362;4.978;2023-06-22T02:00:23;28.0;26.0;
55686;PMS5003;41911;52.362;4.978;2023-06-22T02:00:59;30.0;29.0;
55686;PMS5003;41911;52.362;4.978;2023-06-22T02:01:42;30.0;28.0;
55686;PMS5003;41911;52.362;4.978;2023-06-22T02:02:19;33.0;32.0;
55686;PMS5003;41911;52.362;4.978;2023-06-22T02:02:53;25.0;25.0;
55686;PMS5003;41911;52.362;4.978;2023-06-22T02:03:30;29.0;26.0;
55686;PMS5003;41911;52.362;4.978;2023-06-22T02:04:06;30.0;29.0;
55686;PMS5003;41911;52.362;4.978;2023-06-22T02:04:44;25.0;24.0;
55686;PMS5003;41911;52.362;4.978;2023-06-22T02:05:18;27.0;27.0;
55686;PMS5003;41911;52.362;4.978;2023-06-22T02:05:52;30.0;28.0;
55686;PMS5003;41911;52.362;4.978;2023-06-22T02:06:29;32.0;31.0;
55686;PMS5003;41911;52.362;4.978;2023-06-22T02:07:04;27.0;27.0;
55686;PMS5003;41911;52.362;4.978;2023-06-22T02:07:44;27.0;26.0;
55686;PMS5003;41911;52.362;4.978;2023-06-22T02:08:20;27.0;26.0;
55686;PMS5003;41911;52.362;4.978;2023-06-22T02:08:54;26.0;25.0;
55686;PMS5003;41911;52.362;4.978;2023-06-22T02:09:29;25.0;24.0;
55686;PMS5003;41911;52.362;4.978;2023-06-22T02:10:02;24.0;24.0;
55686;PMS5003;41911;52.362;4.978;2023-06-22T02:10:37;31.0;29.0;
55686;PMS5003;41911;52.362;4.978;2023-06-22T02:11:10;26.0;26.0;
55686;PMS5003;41911;52.362;4.978;2023-06-22T02:11:45;24.0;23.0;
55686;PMS5003;41911;52.362;4.978;2023-06-22T02:12:18;25.0;25.0;
55686;PMS5003;41911;52.362;4.978;2023-06-22T02:12:54;26.0;25.0;
55686;PMS5003;41911;52.362;4.978;2023-06-22T02:13:27;27.0;26.0;
55686;PMS5003;41911;52.362;4.978;2023-06-22T02:13:59;26.0;24.0;
55686;PMS5003;41911;52.362;4.978;2023-06-22T02:14:30;25.0;24.0;
55686;PMS5003;41911;52.362;4.978;2023-06-22T02:15:01;32.0;32.0;
55686;PMS5003;41911;52.362;4.978;2023-06-22T02:15:33;26.0;25.0;
55686;PMS5003;41911;52.362;4.978;2023-06-22T02:16:04;23.0;23.0;
55686;PMS5003;41911;52.362;4.978;2023-06-22T02:16:35;27.0;25.0;
55686;PMS5003;41911;52.362;4.978;2023-06-22T02:17:08;25.0;25.0;
55686;PMS5003;41911;52.362;4.978;2023-06-22T02:17:40;23.0;22.0;
55686;PMS5003;41911;52.362;4.978;2023-06-22T02:18:11;28.0;26.0;
55686;PMS5003;41911;52.362;4.978;2023-06-22T02:18:45;26.0;26.0;
55686;PMS5003;41911;52.362;4.978;2023-06-22T02:19:17;28.0;28.0;
55686;PMS5003;41911;52.362;4.978;2023-06-22T02:19:52;23.0;23.0;
55686;PMS5003;41911;52.362;4.978;2023-06-22T02:20:23;27.0;27.0;
55686;PMS5003;41911;52.362;4.978;2023-06-22T02:20:54;24.0;22.0;
55686;PMS5003;41911;52.362;4.978;2023-06-22T02:21:25;26.0;22.0;
55686;PMS5003;41911;52.362;4.978;2023-06-22T02:21:56;27.0;27.0;
55686;PMS5003;41911;52.362;4.978;2023-06-22T02:22:27;27.0;26.0;
55686;PMS5003;41911;52.362;4.978;2023-06-22T02:22:58;24.0;24.0;
55686;PMS5003;41911;52.362;4.978;2023-06-22T02:23:29;26.0;26.0;
55686;PMS5003;41911;52.362;4.978;2023-06-22T02:24:00;29.0;26.0;
55686;PMS5003;41911;52.362;4.978;2023-06-22T02:24:31;25.0;25.0;
55686;PMS5003;41911;52.362;4.978;2023-06-22T02:25:02;26.0;24.0;
55686;PMS5003;41911;52.362;4.978;2023-06-22T02:25:34;31.0;31.0;
55686;PMS5003;41911;52.362;4.978;2023-06-22T02:26:05;28.0;28.0;
55686;PMS5003;41911;52.362;4.978;2023-06-22T02:26:36;24.0;24.0;
55686;PMS5003;41911;52.362;4.978;2023-06-22T02:27:09;27.0;27.0;
55686;PMS5003;41911;52.362;4.978;2023-06-22T02:27:40;29.0;28.0;
55686;PMS5003;41911;52.362;4.978;2023-06-22T02:28:11;26.0;24.0;
55686;PMS5003;41911;52.362;4.978;2023-06-22T02:28:42;23.0;22.0;
55686;PMS5003;41911;52.362;4.978;2023-06-22T02:29:13;25.0;25.0;
55686;PMS5003;41911;52.362;4.978;2023-06-22T02:29:44;25.0;24.0;
55686;PMS5003;41911;52.362;4.978;2023-06-22T02:30:15;27.0;26.0;
55686;PMS5003;41911;52.362;4.978;2023-06-22T02:30:46;26.0;26.0;
55686;PMS5003;41911;52.362;4.978;2023-06-22T02:31:17;25.0;24.0;
55686;PMS5003;41911;52.362;4.978;2023-06-22T02:31:48;34.0;27.0;
55686;PMS5003;41911;52.362;4.978;2023-06-22T02:32:19;25.0;25.0;
55686;PMS5003;41911;52.362;4.978;2023-06-22T02:32:50;24.0;24.0;
55686;PMS5003;41911;52.362;4.978;2023-06-22T02:33:21;25.0;25.0;
55686;PMS5003;41911;52.362;4.978;2023-06-22T02:33:52;25.0;24.0;
55686;PMS5003;41911;52.362;4.978;2023-06-22T02:34:23;29.0;29.0;
55686;PMS5003;41911;52.362;4.978;2023-06-22T02:34:54;25.0;24.0;
55686;PMS5003;41911;52.362;4.978;2023-06-22T02:35:25;30.0;27.0;
55686;PMS5003;41911;52.362;4.978;2023-06-22T02:35:56;22.0;22.0;
55686;PMS5003;41911;52.362;4.978;2023-06-22T02:36:27;27.0;27.0;
55686;PMS5003;41911;52.362;4.978;2023-06-22T02:36:59;29.0;26.0;
55686;PMS5003;41911;52.362;4.978;2023-06-22T02:37:30;25.0;24.0;
55686;PMS5003;41911;52.362;4.978;2023-06-22T02:38:02;23.0;23.0;
55686;PMS5003;41911;52.362;4.978;2023-06-22T02:38:34;24.0;23.0;
55686;PMS5003;41911;52.362;4.978;2023-06-22T02:39:05;23.0;21.0;
55686;PMS5003;41911;52.362;4.978;2023-06-22T02:39:36;25.0;23.0;
55686;PMS5003;41911;52.362;4.978;2023-06-22T02:40:08;30.0;30.0;
55686;PMS5003;41911;52.362;4.978;2023-06-22T02:40:39;30.0;28.0;
55686;PMS5003;41911;52.362;4.978;2023-06-22T02:41:10;26.0;26.0;
55686;PMS5003;41911;52.362;4.978;2023-06-22T02:41:41;25.0;24.0;
55686;PMS5003;41911;52.362;4.978;2023-06-22T02:42:12;29.0;28.0;
55686;PMS5003;41911;52.362;4.978;2023-06-22T02:42:43;29.0;28.0;
55686;PMS5003;41911;52.362;4.978;2023-06-22T02:43:14;24.0;24.0;
55686;PMS5003;41911;52.362;4.978;2023-06-22T02:43:45;25.0;24.0;
55686;PMS5003;41911;52.362;4.978;2023-06-22T02:44:17;28.0;27.0;
55686;PMS5003;41911;52.362;4.978;2023-06-22T02:44:48;27.0;27.0;
55686;PMS5003;41911;52.362;4.978;2023-06-22T02:45:19;27.0;25.0;
55686;PMS5003;41911;52.362;4.978;2023-06-22T02:45:50;24.0;24.0;
55686;PMS5003;41911;52.362;4.978;2023-06-22T02:46:21;24.0;24.0;
55686;PMS5003;41911;52.362;4.978;2023-06-22T02:46:53;29.0;29.0;
55686;PMS5003;41911;52.362;4.978;2023-06-22T02:47:23;30.0;30.0;
55686;PMS5003;41911;52.362;4.978;2023-06-22T02:47:55;29.0;28.0;
55686;PMS5003;41911;52.362;4.978;2023-06-22T02:48:26;29.0;29.0;
55686;PMS5003;41911;52.362;4.978;2023-06-22T02:48:57;33.0;32.0;
55686;PMS5003;41911;52.362;4.978;2023-06-22T02:49:28;29.0;29.0;
55686;PMS5003;41911;52.362;4.978;2023-06-22T02:50:00;29.0;27.0;
55686;PMS5003;41911;52.362;4.978;2023-06-22T02:50:31;27.0;27.0;
55686;PMS5003;41911;52.362;4.978;2023-06-22T02:51:02;28.0;26.0;
55686;PMS5003;41911;52.362;4.978;2023-06-22T02:51:33;26.0;26.0;
55686;PMS5003;41911;52.362;4.978;2023-06-22T02:52:04;26.0;25.0;
55686;PMS5003;41911;52.362;4.978;2023-06-22T02:52:35;29.0;29.0;
55686;PMS5003;41911;52.362;4.978;2023-06-22T02:53:06;26.0;26.0;
55686;PMS5003;41911;52.362;4.978;2023-06-22T02:53:37;25.0;25.0;
55686;PMS5003;41911;52.362;4.978;2023-06-22T02:54:08;28.0;27.0;
55686;PMS5003;41911;52.362;4.978;2023-06-22T02:54:39;30.0;29.0;
55686;PMS5003;41911;52.362;4.978;2023-06-22T02:55:10;28.0;28.0;
55686;PMS5003;41911;52.362;4.978;2023-06-22T02:55:41;27.0;24.0;
55686;PMS5003;41911;52.362;4.978;2023-06-22T02:56:12;29.0;28.0;
55686;PMS5003;41911;52.362;4.978;2023-06-22T02:56:43;33.0;32.0;
55686;PMS5003;41911;52.362;4.978;2023-06-22T02:57:14;29.0;28.0;
55686;PMS5003;41911;52.362;4.978;2023-06-22T02:57:45;37.0;34.0;
55686;PMS5003;41911;52.362;4.978;2023-06-22T02:58:16;36.0;35.0;
55686;PMS5003;41911;52.362;4.978;2023-06-22T02:58:48;31.0;31.0;
55686;PMS5003;41911;52.362;4.978;2023-06-22T02:59:19;32.0;32.0;
55686;PMS5003;41911;52.362;4.978;2023-06-22T02:59:50;33.0;32.0;
55686;PMS5003;41911;52.362;4.978;2023-06-22T03:00:21;34.0;33.0;
55686;PMS5003;41911;52.362;4.978;2023-06-22T03:00:52;33.0;32.0;
55686;PMS5003;41911;52.362;4.978;2023-06-22T03:01:23;31.0;29.0;
55686;PMS5003;41911;52.362;4.978;2023-06-22T03:01:54;37.0;35.0;
55686;PMS5003;41911;52.362;4.978;2023-06-22T03:02:25;34.0;32.0;
55686;PMS5003;41911;52.362;4.978;2023-06-22T03:02:56;34.0;34.0;
55686;PMS5003;41911;52.362;4.978;2023-06-22T03:03:28;30.0;29.0;
55686;PMS5003;41911;52.362;4.978;2023-06-22T03:03:59;39.0;35.0;
55686;PMS5003;41911;52.362;4.978;2023-06-22T03:04:30;34.0;34.0;
55686;PMS5003;41911;52.362;4.978;2023-06-22T03:05:01;29.0;29.0;
55686;PMS5003;41911;52.362;4.978;2023-06-22T03:05:31;36.0;33.0;
55686;PMS5003;41911;52.362;4.978;2023-06-22T03:06:02;33.0;31.0;
55686;PMS5003;41911;52.362;4.978;2023-06-22T03:06:34;32.0;31.0;
55686;PMS5003;41911;52.362;4.978;2023-06-22T03:07:05;30.0;29.0;
55686;PMS5003;41911;52.362;4.978;2023-06-22T03:07:36;33.0;33.0;
55686;PMS5003;41911;52.362;4.978;2023-06-22T03:08:07;36.0;36.0;
55686;PMS5003;41911;52.362;4.978;2023-06-22T03:08:38;35.0;32.0;
55686;PMS5003;41911;52.362;4.978;2023-06-22T03:09:09;31.0;30.0;
55686;PMS5003;41911;52.362;4.978;2023-06-22T03:09:40;34.0;33.0;
55686;PMS5003;41911;52.362;4.978;2023-06-22T03:10:12;33.0;33.0;
55686;PMS5003;41911;52.362;4.978;2023-06-22T03:10:43;33.0;33.0;
55686;PMS5003;41911;52.362;4.978;2023-06-22T03:11:14;33.0;32.0;
55686;PMS5003;41911;52.362;4.978;2023-06-22T03:11:45;34.0;31.0;
55686;PMS5003;41911;52.362;4.978;2023-06-22T03:12:16;30.0;29.0;
55686;PMS5003;41911;52.362;4.978;2023-06-22T03:12:47;39.0;36.0;
55686;PMS5003;41911;52.362;4.978;2023-06-22T03:13:18;32.0;32.0;
55686;PMS5003;41911;52.362;4.978;2023-06-22T03:13:49;33.0;33.0;
55686;PMS5003;41911;52.362;4.978;2023-06-22T03:14:20;38.0;35.0;
55686;PMS5003;41911;52.362;4.978;2023-06-22T03:14:51;34.0;34.0;
55686;PMS5003;41911;52.362;4.978;2023-06-22T03:15:23;34.0;32.0;
55686;PMS5003;41911;52.362;4.978;2023-06-22T03:15:53;33.0;32.0;
55686;PMS5003;41911;52.362;4.978;2023-06-22T03:16:25;34.0;30.0;
55686;PMS5003;41911;52.362;4.978;2023-06-22T03:16:57;33.0;33.0;
55686;PMS5003;41911;52.362;4.978;2023-06-22T03:17:28;31.0;30.0;
55686;PMS5003;41911;52.362;4.978;2023-06-22T03:17:59;33.0;31.0;
55686;PMS5003;41911;52.362;4.978;2023-06-22T03:18:30;41.0;39.0;
55686;PMS5003;41911;52.362;4.978;2023-06-22T03:19:00;25.0;25.0;
55686;PMS5003;41911;52.362;4.978;2023-06-22T03:19:31;37.0;35.0;
55686;PMS5003;41911;52.362;4.978;2023-06-22T03:20:03;38.0;37.0;
55686;PMS5003;41911;52.362;4.978;2023-06-22T03:20:34;31.0;31.0;
55686;PMS5003;41911;52.362;4.978;2023-06-22T03:21:05;31.0;30.0;